Terminal Aerodrome Forecast
Issued by NWS Charleston, WV

Current Version | Previous Version | Graphics & Text | Print | Product List | Glossary On
Versions: 1 2 3 4 5 6 7 8 9 10 11 12 13 14 15 16 17 18 19 20 21 22 23 24 25
000
FTUS41 KRLX 301100 RRA
TAFHTS
TAF
KHTS 301147Z 3012/0112 00000KT P6SM BKN060
     FM301600 31009KT 5SM SHRA VCTS BKN045CB
     FM302300 34006KT 6SM -SHRA BKN040
     FM010500 32005KT 6SM BR BKN025
     FM010800 31006KT 5SM BR OVC015=

USA.gov is the U.S. government's official web portal to all federal, state and local government web resources and services.